sensor_id;sensor_type;location;lat;lon;timestamp;P1;durP1;ratioP1;P2;durP2;ratioP2
26718;SDS011;14326;50.794;6.060;2023-04-15T00:05:24;11.48;;;2.90;;
26718;SDS011;14326;50.794;6.060;2023-04-15T00:08:06;14.07;;;3.60;;
26718;SDS011;14326;50.794;6.060;2023-04-15T00:11:10;11.93;;;3.20;;
26718;SDS011;14326;50.794;6.060;2023-04-15T00:13:50;14.20;;;3.58;;
26718;SDS011;14326;50.794;6.060;2023-04-15T00:16:28;14.55;;;3.38;;
26718;SDS011;14326;50.794;6.060;2023-04-15T00:18:58;14.32;;;3.90;;
26718;SDS011;14326;50.794;6.060;2023-04-15T00:21:51;15.65;;;3.83;;
26718;SDS011;14326;50.794;6.060;2023-04-15T00:24:21;10.15;;;3.22;;
26718;SDS011;14326;50.794;6.060;2023-04-15T00:26:51;21.67;;;3.67;;
26718;SDS011;14326;50.794;6.060;2023-04-15T00:29:52;15.05;;;3.70;;
26718;SDS011;14326;50.794;6.060;2023-04-15T00:32:43;16.80;;;4.13;;
26718;SDS011;14326;50.794;6.060;2023-04-15T00:35:24;14.77;;;4.03;;
26718;SDS011;14326;50.794;6.060;2023-04-15T00:38:07;16.45;;;3.78;;
26718;SDS011;14326;50.794;6.060;2023-04-15T00:40:42;13.30;;;3.80;;
26718;SDS011;14326;50.794;6.060;2023-04-15T00:43:11;14.13;;;3.97;;
26718;SDS011;14326;50.794;6.060;2023-04-15T00:45:48;16.88;;;3.75;;
26718;SDS011;14326;50.794;6.060;2023-04-15T00:48:27;12.77;;;3.38;;
26718;SDS011;14326;50.794;6.060;2023-04-15T00:51:24;11.50;;;3.72;;
26718;SDS011;14326;50.794;6.060;2023-04-15T00:54:04;12.75;;;3.60;;
26718;SDS011;14326;50.794;6.060;2023-04-15T00:56:49;12.30;;;3.50;;
26718;SDS011;14326;50.794;6.060;2023-04-15T00:59:44;14.48;;;3.38;;
26718;SDS011;14326;50.794;6.060;2023-04-15T01:02:23;14.15;;;3.00;;
26718;SDS011;14326;50.794;6.060;2023-04-15T01:04:51;13.25;;;3.60;;
26718;SDS011;14326;50.794;6.060;2023-04-15T01:07:18;14.93;;;3.20;;
26718;SDS011;14326;50.794;6.060;2023-04-15T01:09:45;15.68;;;3.90;;
26718;SDS011;14326;50.794;6.060;2023-04-15T01:12:26;14.27;;;3.45;;
26718;SDS011;14326;50.794;6.060;2023-04-15T01:14:54;11.82;;;3.58;;
26718;SDS011;14326;50.794;6.060;2023-04-15T01:17:21;12.50;;;3.58;;
26718;SDS011;14326;50.794;6.060;2023-04-15T01:19:52;13.27;;;3.40;;
26718;SDS011;14326;50.794;6.060;2023-04-15T01:22:26;13.63;;;3.95;;
26718;SDS011;14326;50.794;6.060;2023-04-15T01:25:04;12.20;;;3.08;;
26718;SDS011;14326;50.794;6.060;2023-04-15T01:28:04;13.80;;;3.35;;
26718;SDS011;14326;50.794;6.060;2023-04-15T01:33:34;17.48;;;4.07;;
26718;SDS011;14326;50.794;6.060;2023-04-15T01:36:08;15.45;;;3.60;;
26718;SDS011;14326;50.794;6.060;2023-04-15T01:38:46;12.70;;;3.63;;
26718;SDS011;14326;50.794;6.060;2023-04-15T01:41:30;12.68;;;3.47;;
26718;SDS011;14326;50.794;6.060;2023-04-15T01:47:40;13.07;;;2.92;;
26718;SDS011;14326;50.794;6.060;2023-04-15T01:50:24;13.18;;;2.88;;
26718;SDS011;14326;50.794;6.060;2023-04-15T01:53:53;12.65;;;3.38;;
26718;SDS011;14326;50.794;6.060;2023-04-15T01:56:47;12.50;;;3.17;;
26718;SDS011;14326;50.794;6.060;2023-04-15T01:59:34;12.98;;;3.40;;
26718;SDS011;14326;50.794;6.060;2023-04-15T02:02:22;15.13;;;3.40;;
26718;SDS011;14326;50.794;6.060;2023-04-15T02:04:48;13.25;;;3.30;;
26718;SDS011;14326;50.794;6.060;2023-04-15T02:07:15;12.93;;;3.45;;
26718;SDS011;14326;50.794;6.060;2023-04-15T02:09:42;14.57;;;3.47;;
26718;SDS011;14326;50.794;6.060;2023-04-15T02:12:10;11.95;;;3.40;;
26718;SDS011;14326;50.794;6.060;2023-04-15T02:14:38;13.57;;;3.53;;
26718;SDS011;14326;50.794;6.060;2023-04-15T02:17:28;14.10;;;3.63;;
26718;SDS011;14326;50.794;6.060;2023-04-15T02:20:03;19.85;;;3.63;;
26718;SDS011;14326;50.794;6.060;2023-04-15T02:22:44;15.27;;;4.45;;
26718;SDS011;14326;50.794;6.060;2023-04-15T02:25:23;14.45;;;3.80;;
26718;SDS011;14326;50.794;6.060;2023-04-15T02:27:57;10.70;;;3.50;;
26718;SDS011;14326;50.794;6.060;2023-04-15T02:30:24;12.90;;;3.22;;
26718;SDS011;14326;50.794;6.060;2023-04-15T02:32:55;13.52;;;3.50;;
26718;SDS011;14326;50.794;6.060;2023-04-15T02:35:31;26.35;;;4.57;;
26718;SDS011;14326;50.794;6.060;2023-04-15T02:38:07;12.35;;;3.33;;
26718;SDS011;14326;50.794;6.060;2023-04-15T02:40:45;10.38;;;3.33;;
26718;SDS011;14326;50.794;6.060;2023-04-15T02:45:55;13.82;;;3.42;;
26718;SDS011;14326;50.794;6.060;2023-04-15T02:48:27;14.18;;;3.78;;
26718;SDS011;14326;50.794;6.060;2023-04-15T02:51:13;14.68;;;3.63;;
26718;SDS011;14326;50.794;6.060;2023-04-15T02:53:46;14.57;;;3.63;;
26718;SDS011;14326;50.794;6.060;2023-04-15T02:56:25;15.93;;;3.38;;
26718;SDS011;14326;50.794;6.060;2023-04-15T02:59:02;12.95;;;4.13;;
26718;SDS011;14326;50.794;6.060;2023-04-15T03:01:28;16.65;;;3.83;;
26718;SDS011;14326;50.794;6.060;2023-04-15T03:03:59;11.68;;;3.40;;
26718;SDS011;14326;50.794;6.060;2023-04-15T03:06:37;14.95;;;3.92;;
26718;SDS011;14326;50.794;6.060;2023-04-15T03:09:04;14.98;;;3.60;;
26718;SDS011;14326;50.794;6.060;2023-04-15T03:11:33;13.52;;;3.55;;
26718;SDS011;14326;50.794;6.060;2023-04-15T03:14:30;11.82;;;3.60;;
26718;SDS011;14326;50.794;6.060;2023-04-15T03:17:22;14.07;;;3.42;;
26718;SDS011;14326;50.794;6.060;2023-04-15T03:19:58;12.82;;;3.47;;
26718;SDS011;14326;50.794;6.060;2023-04-15T03:22:39;14.02;;;3.90;;
26718;SDS011;14326;50.794;6.060;2023-04-15T03:25:17;12.60;;;3.58;;
26718;SDS011;14326;50.794;6.060;2023-04-15T03:28:02;13.30;;;3.67;;
26718;SDS011;14326;50.794;6.060;2023-04-15T03:30:35;11.65;;;3.10;;
26718;SDS011;14326;50.794;6.060;2023-04-15T03:33:24;10.23;;;2.92;;
26718;SDS011;14326;50.794;6.060;2023-04-15T03:36:08;13.30;;;3.38;;
26718;SDS011;14326;50.794;6.060;2023-04-15T03:38:35;8.25;;;2.97;;
26718;SDS011;14326;50.794;6.060;2023-04-15T03:41:02;14.48;;;3.80;;
26718;SDS011;14326;50.794;6.060;2023-04-15T03:43:29;15.18;;;3.60;;
26718;SDS011;14326;50.794;6.060;2023-04-15T03:46:10;11.98;;;3.40;;
26718;SDS011;14326;50.794;6.060;2023-04-15T03:48:47;14.30;;;3.40;;
26718;SDS011;14326;50.794;6.060;2023-04-15T03:51:51;11.27;;;3.00;;
26718;SDS011;14326;50.794;6.060;2023-04-15T03:54:39;15.13;;;3.50;;
26718;SDS011;14326;50.794;6.060;2023-04-15T03:57:12;13.15;;;3.10;;
26718;SDS011;14326;50.794;6.060;2023-04-15T04:00:03;14.00;;;2.92;;
26718;SDS011;14326;50.794;6.060;2023-04-15T04:02:37;14.73;;;3.33;;
26718;SDS011;14326;50.794;6.060;2023-04-15T04:05:28;14.55;;;3.50;;
26718;SDS011;14326;50.794;6.060;2023-04-15T04:11:04;11.80;;;2.92;;
26718;SDS011;14326;50.794;6.060;2023-04-15T04:13:33;9.05;;;2.97;;
26718;SDS011;14326;50.794;6.060;2023-04-15T04:16:32;10.77;;;3.00;;
26718;SDS011;14326;50.794;6.060;2023-04-15T04:18:59;11.07;;;2.83;;
26718;SDS011;14326;50.794;6.060;2023-04-15T04:21:25;7.38;;;2.65;;
26718;SDS011;14326;50.794;6.060;2023-04-15T04:24:08;9.35;;;2.67;;
26718;SDS011;14326;50.794;6.060;2023-04-15T04:26:35;12.02;;;2.75;;
26718;SDS011;14326;50.794;6.060;2023-04-15T04:29:01;7.50;;;2.88;;
26718;SDS011;14326;50.794;6.060;2023-04-15T04:31:28;9.10;;;2.75;;
26718;SDS011;14326;50.794;6.060;2023-04-15T04:34:02;8.88;;;2.80;;
26718;SDS011;14326;50.794;6.060;2023-04-15T04:36:32;6.28;;;2.75;;
26718;SDS011;14326;50.794;6.060;2023-04-15T04:39:20;8.25;;;2.55;;
26718;SDS011;14326;50.794;6.060;2023-04-15T04:42:00;13.77;;;4.00;;
26718;SDS011;14326;50.794;6.060;2023-04-15T04:44:27;10.90;;;3.00;;
26718;SDS011;14326;50.794;6.060;2023-04-15T04:46:53;7.82;;;2.60;;
26718;SDS011;14326;50.794;6.060;2023-04-15T04:49:20;9.70;;;2.58;;
26718;SDS011;14326;50.794;6.060;2023-04-15T04:51:47;14.02;;;2.85;;
26718;SDS011;14326;50.794;6.060;2023-04-15T04:54:14;9.35;;;2.58;;
26718;SDS011;14326;50.794;6.060;2023-04-15T04:56:43;13.70;;;3.17;;
26718;SDS011;14326;50.794;6.060;2023-04-15T04:59:09;8.65;;;2.50;;
26718;SDS011;14326;50.794;6.060;2023-04-15T05:01:36;6.82;;;2.30;;
26718;SDS011;14326;50.794;6.060;2023-04-15T05:04:02;9.10;;;2.72;;
26718;SDS011;14326;50.794;6.060;2023-04-15T05:06:31;6.93;;;2.40;;
26718;SDS011;14326;50.794;6.060;2023-04-15T05:08:58;11.70;;;2.95;;
26718;SDS011;14326;50.794;6.060;2023-04-15T05:14:29;10.32;;;2.63;;
26718;SDS011;14326;50.794;6.060;2023-04-15T05:17:05;10.30;;;2.25;;
26718;SDS011;14326;50.794;6.060;2023-04-15T05:19:32;5.20;;;2.22;;
26718;SDS011;14326;50.794;6.060;2023-04-15T05:21:58;10.45;;;2.80;;
26718;SDS011;14326;50.794;6.060;2023-04-15T05:24:31;9.82;;;3.17;;
26718;SDS011;14326;50.794;6.060;2023-04-15T05:27:18;12.13;;;2.55;;
26718;SDS011;14326;50.794;6.060;2023-04-15T05:29:50;9.65;;;3.75;;
26718;SDS011;14326;50.794;6.060;2023-04-15T05:32:38;8.52;;;2.80;;
26718;SDS011;14326;50.794;6.060;2023-04-15T05:38:03;8.75;;;2.78;;
26718;SDS011;14326;50.794;6.060;2023-04-15T05:40:31;12.40;;;2.65;;
26718;SDS011;14326;50.794;6.060;2023-04-15T05:43:19;13.32;;;3.08;;
26718;SDS011;14326;50.794;6.060;2023-04-15T05:45:56;13.48;;;2.97;;
26718;SDS011;14326;50.794;6.060;2023-04-15T05:48:42;10.40;;;2.90;;
26718;SDS011;14326;50.794;6.060;2023-04-15T05:51:37;13.75;;;3.70;;
26718;SDS011;14326;50.794;6.060;2023-04-15T05:54:23;13.65;;;3.67;;
26718;SDS011;14326;50.794;6.060;2023-04-15T06:00:11;13.88;;;3.50;;
26718;SDS011;14326;50.794;6.060;2023-04-15T06:02:38;11.27;;;2.95;;
26718;SDS011;14326;50.794;6.060;2023-04-15T06:05:23;13.45;;;3.33;;
26718;SDS011;14326;50.794;6.060;2023-04-15T06:08:05;13.05;;;3.65;;
26718;SDS011;14326;50.794;6.060;2023-04-15T06:10:38;10.43;;;3.60;;
26718;SDS011;14326;50.794;6.060;2023-04-15T06:13:04;16.00;;;4.20;;
26718;SDS011;14326;50.794;6.060;2023-04-15T06:15:45;12.70;;;3.72;;
26718;SDS011;14326;50.794;6.060;2023-04-15T06:18:14;15.18;;;3.80;;
26718;SDS011;14326;50.794;6.060;2023-04-15T06:20:43;16.15;;;4.05;;
26718;SDS011;14326;50.794;6.060;2023-04-15T06:26:25;11.88;;;4.13;;
26718;SDS011;14326;50.794;6.060;2023-04-15T06:28:52;14.35;;;4.40;;
26718;SDS011;14326;50.794;6.060;2023-04-15T06:31:30;17.17;;;3.90;;
26718;SDS011;14326;50.794;6.060;2023-04-15T06:34:00;15.18;;;4.00;;
26718;SDS011;14326;50.794;6.060;2023-04-15T06:36:29;16.45;;;4.43;;
26718;SDS011;14326;50.794;6.060;2023-04-15T06:38:56;15.93;;;4.18;;
26718;SDS011;14326;50.794;6.060;2023-04-15T06:41:39;14.38;;;4.00;;
26718;SDS011;14326;50.794;6.060;2023-04-15T06:44:06;13.55;;;4.35;;
26718;SDS011;14326;50.794;6.060;2023-04-15T06:46:34;21.92;;;7.03;;
26718;SDS011;14326;50.794;6.060;2023-04-15T06:49:00;22.88;;;7.28;;
26718;SDS011;14326;50.794;6.060;2023-04-15T06:51:38;17.33;;;5.07;;
26718;SDS011;14326;50.794;6.060;2023-04-15T06:54:27;19.45;;;3.80;;
26718;SDS011;14326;50.794;6.060;2023-04-15T06:57:07;16.48;;;4.22;;
26718;SDS011;14326;50.794;6.060;2023-04-15T06:59:34;19.75;;;4.30;;
26718;SDS011;14326;50.794;6.060;2023-04-15T07:02:07;15.07;;;3.92;;
26718;SDS011;14326;50.794;6.060;2023-04-15T07:04:44;16.10;;;4.18;;
26718;SDS011;14326;50.794;6.060;2023-04-15T07:07:21;20.25;;;4.40;;
26718;SDS011;14326;50.794;6.060;2023-04-15T07:10:06;17.63;;;4.25;;
26718;SDS011;14326;50.794;6.060;2023-04-15T07:12:36;17.65;;;4.68;;
26718;SDS011;14326;50.794;6.060;2023-04-15T07:15:03;16.60;;;5.18;;
26718;SDS011;14326;50.794;6.060;2023-04-15T07:17:32;16.65;;;4.55;;
26718;SDS011;14326;50.794;6.060;2023-04-15T07:19:58;23.27;;;5.68;;
26718;SDS011;14326;50.794;6.060;2023-04-15T07:22:27;18.17;;;5.10;;
26718;SDS011;14326;50.794;6.060;2023-04-15T07:25:17;18.48;;;5.10;;
26718;SDS011;14326;50.794;6.060;2023-04-15T07:27:55;17.33;;;4.30;;
26718;SDS011;14326;50.794;6.060;2023-04-15T07:30:43;15.85;;;5.22;;
26718;SDS011;14326;50.794;6.060;2023-04-15T07:33:17;16.92;;;4.35;;
26718;SDS011;14326;50.794;6.060;2023-04-15T07:35:47;16.38;;;5.07;;
26718;SDS011;14326;50.794;6.060;2023-04-15T07:38:25;17.77;;;4.60;;
26718;SDS011;14326;50.794;6.060;2023-04-15T07:41:19;16.77;;;4.95;;
26718;SDS011;14326;50.794;6.060;2023-04-15T07:43:46;18.50;;;4.97;;
26718;SDS011;14326;50.794;6.060;2023-04-15T07:46:16;19.33;;;5.57;;
26718;SDS011;14326;50.794;6.060;2023-04-15T07:48:52;19.25;;;4.78;;
26718;SDS011;14326;50.794;6.060;2023-04-15T07:51:23;16.60;;;5.13;;
26718;SDS011;14326;50.794;6.060;2023-04-15T07:53:52;16.15;;;4.55;;
26718;SDS011;14326;50.794;6.060;2023-04-15T07:56:19;18.00;;;5.55;;
26718;SDS011;14326;50.794;6.060;2023-04-15T07:58:46;15.48;;;5.07;;
26718;SDS011;14326;50.794;6.060;2023-04-15T08:01:15;20.50;;;5.75;;
26718;SDS011;14326;50.794;6.060;2023-04-15T08:03:48;17.58;;;6.07;;
26718;SDS011;14326;50.794;6.060;2023-04-15T08:06:16;18.13;;;5.72;;
26718;SDS011;14326;50.794;6.060;2023-04-15T08:08:49;18.77;;;5.80;;
26718;SDS011;14326;50.794;6.060;2023-04-15T08:11:18;24.30;;;6.05;;
26718;SDS011;14326;50.794;6.060;2023-04-15T08:13:45;16.95;;;6.03;;
26718;SDS011;14326;50.794;6.060;2023-04-15T08:16:15;19.65;;;6.65;;
26718;SDS011;14326;50.794;6.060;2023-04-15T08:18:54;17.63;;;6.32;;
26718;SDS011;14326;50.794;6.060;2023-04-15T08:21:26;20.15;;;6.82;;
26718;SDS011;14326;50.794;6.060;2023-04-15T08:23:54;20.55;;;6.18;;
26718;SDS011;14326;50.794;6.060;2023-04-15T08:26:25;19.00;;;7.22;;
26718;SDS011;14326;50.794;6.060;2023-04-15T08:28:52;16.13;;;6.47;;
26718;SDS011;14326;50.794;6.060;2023-04-15T08:31:18;19.48;;;7.22;;
26718;SDS011;14326;50.794;6.060;2023-04-15T08:33:51;27.17;;;8.00;;
26718;SDS011;14326;50.794;6.060;2023-04-15T08:36:21;21.42;;;7.13;;
26718;SDS011;14326;50.794;6.060;2023-04-15T08:38:50;18.30;;;7.25;;
26718;SDS011;14326;50.794;6.060;2023-04-15T08:41:19;19.38;;;7.55;;
26718;SDS011;14326;50.794;6.060;2023-04-15T08:43:51;20.85;;;6.70;;
26718;SDS011;14326;50.794;6.060;2023-04-15T08:46:27;20.38;;;6.95;;
26718;SDS011;14326;50.794;6.060;2023-04-15T08:49:04;19.77;;;7.50;;
26718;SDS011;14326;50.794;6.060;2023-04-15T08:51:45;23.08;;;7.57;;
26718;SDS011;14326;50.794;6.060;2023-04-15T08:54:14;20.52;;;7.78;;
26718;SDS011;14326;50.794;6.060;2023-04-15T08:56:41;20.13;;;7.90;;
26718;SDS011;14326;50.794;6.060;2023-04-15T08:59:10;19.23;;;7.80;;
26718;SDS011;14326;50.794;6.060;2023-04-15T09:01:37;21.52;;;8.50;;
26718;SDS011;14326;50.794;6.060;2023-04-15T09:04:06;20.15;;;7.93;;
26718;SDS011;14326;50.794;6.060;2023-04-15T09:06:38;23.73;;;8.55;;
26718;SDS011;14326;50.794;6.060;2023-04-15T09:09:05;23.05;;;8.32;;
26718;SDS011;14326;50.794;6.060;2023-04-15T09:11:33;23.95;;;8.80;;
26718;SDS011;14326;50.794;6.060;2023-04-15T09:14:00;19.92;;;7.90;;
26718;SDS011;14326;50.794;6.060;2023-04-15T09:16:27;17.77;;;7.95;;
26718;SDS011;14326;50.794;6.060;2023-04-15T09:18:54;21.85;;;8.20;;
26718;SDS011;14326;50.794;6.060;2023-04-15T09:21:21;22.10;;;7.90;;
26718;SDS011;14326;50.794;6.060;2023-04-15T09:26:36;20.73;;;7.72;;
26718;SDS011;14326;50.794;6.060;2023-04-15T09:29:07;21.75;;;7.82;;
26718;SDS011;14326;50.794;6.060;2023-04-15T09:31:39;17.50;;;6.18;;
26718;SDS011;14326;50.794;6.060;2023-04-15T09:34:16;14.60;;;4.75;;
26718;SDS011;14326;50.794;6.060;2023-04-15T09:36:54;15.73;;;4.80;;
26718;SDS011;14326;50.794;6.060;2023-04-15T09:39:24;17.95;;;6.25;;
26718;SDS011;14326;50.794;6.060;2023-04-15T09:42:05;24.33;;;9.85;;
26718;SDS011;14326;50.794;6.060;2023-04-15T09:44:32;20.48;;;6.65;;
26718;SDS011;14326;50.794;6.060;2023-04-15T09:47:05;18.20;;;6.50;;
26718;SDS011;14326;50.794;6.060;2023-04-15T09:53:22;15.35;;;4.70;;
26718;SDS011;14326;50.794;6.060;2023-04-15T09:55:51;17.92;;;6.78;;
26718;SDS011;14326;50.794;6.060;2023-04-15T09:58:21;15.65;;;5.10;;
26718;SDS011;14326;50.794;6.060;2023-04-15T10:00:52;17.52;;;5.32;;
26718;SDS011;14326;50.794;6.060;2023-04-15T10:03:23;15.20;;;5.10;;
26718;SDS011;14326;50.794;6.060;2023-04-15T10:06:25;15.10;;;5.43;;
26718;SDS011;14326;50.794;6.060;2023-04-15T10:08:59;17.70;;;5.68;;
26718;SDS011;14326;50.794;6.060;2023-04-15T10:11:27;17.05;;;6.25;;
26718;SDS011;14326;50.794;6.060;2023-04-15T10:16:50;19.13;;;6.78;;
26718;SDS011;14326;50.794;6.060;2023-04-15T10:19:24;17.92;;;6.47;;
26718;SDS011;14326;50.794;6.060;2023-04-15T10:21:52;17.77;;;6.78;;
26718;SDS011;14326;50.794;6.060;2023-04-15T10:24:24;14.90;;;4.90;;
26718;SDS011;14326;50.794;6.060;2023-04-15T10:26:51;15.50;;;4.90;;
26718;SDS011;14326;50.794;6.060;2023-04-15T10:29:26;18.23;;;6.00;;
26718;SDS011;14326;50.794;6.060;2023-04-15T10:32:06;16.40;;;5.35;;
26718;SDS011;14326;50.794;6.060;2023-04-15T10:34:53;16.30;;;4.70;;
26718;SDS011;14326;50.794;6.060;2023-04-15T10:43:05;15.13;;;5.13;;
26718;SDS011;14326;50.794;6.060;2023-04-15T10:45:35;16.63;;;5.13;;
26718;SDS011;14326;50.794;6.060;2023-04-15T10:48:31;15.68;;;5.15;;
26718;SDS011;14326;50.794;6.060;2023-04-15T10:51:25;18.38;;;5.30;;
26718;SDS011;14326;50.794;6.060;2023-04-15T10:54:03;13.27;;;3.90;;
26718;SDS011;14326;50.794;6.060;2023-04-15T10:56:40;13.73;;;3.88;;
26718;SDS011;14326;50.794;6.060;2023-04-15T10:59:08;12.35;;;4.05;;
26718;SDS011;14326;50.794;6.060;2023-04-15T11:01:52;14.95;;;4.13;;
26718;SDS011;14326;50.794;6.060;2023-04-15T11:07:32;11.30;;;3.15;;
26718;SDS011;14326;50.794;6.060;2023-04-15T11:10:03;7.35;;;2.78;;
26718;SDS011;14326;50.794;6.060;2023-04-15T11:12:52;10.88;;;3.10;;
26718;SDS011;14326;50.794;6.060;2023-04-15T11:15:37;11.95;;;3.80;;
26718;SDS011;14326;50.794;6.060;2023-04-15T11:18:24;12.65;;;2.88;;
26718;SDS011;14326;50.794;6.060;2023-04-15T11:20:58;10.90;;;3.40;;
26718;SDS011;14326;50.794;6.060;2023-04-15T11:23:30;12.30;;;3.88;;
26718;SDS011;14326;50.794;6.060;2023-04-15T11:26:11;8.82;;;3.13;;
26718;SDS011;14326;50.794;6.060;2023-04-15T11:28:38;15.05;;;4.13;;
26718;SDS011;14326;50.794;6.060;2023-04-15T11:31:07;8.63;;;3.28;;
26718;SDS011;14326;50.794;6.060;2023-04-15T11:33:37;10.32;;;3.55;;
26718;SDS011;14326;50.794;6.060;2023-04-15T11:36:28;9.93;;;2.83;;
26718;SDS011;14326;50.794;6.060;2023-04-15T11:39:07;10.73;;;2.80;;
26718;SDS011;14326;50.794;6.060;2023-04-15T11:41:34;7.38;;;3.33;;
26718;SDS011;14326;50.794;6.060;2023-04-15T11:44:01;10.02;;;3.10;;
26718;SDS011;14326;50.794;6.060;2023-04-15T11:46:28;10.65;;;2.90;;
26718;SDS011;14326;50.794;6.060;2023-04-15T11:49:06;10.93;;;3.28;;
26718;SDS011;14326;50.794;6.060;2023-04-15T11:51:33;9.15;;;2.67;;
26718;SDS011;14326;50.794;6.060;2023-04-15T11:53:59;10.38;;;3.13;;
26718;SDS011;14326;50.794;6.060;2023-04-15T11:56:26;14.32;;;3.97;;
26718;SDS011;14326;50.794;6.060;2023-04-15T11:58:53;12.13;;;3.65;;
26718;SDS011;14326;50.794;6.060;2023-04-15T12:01:32;5.15;;;2.15;;
26718;SDS011;14326;50.794;6.060;2023-04-15T12:04:17;8.45;;;2.92;;
26718;SDS011;14326;50.794;6.060;2023-04-15T12:07:03;6.95;;;2.60;;
26718;SDS011;14326;50.794;6.060;2023-04-15T12:09:30;13.13;;;4.20;;
26718;SDS011;14326;50.794;6.060;2023-04-15T12:14:56;12.35;;;3.55;;
26718;SDS011;14326;50.794;6.060;2023-04-15T12:17:24;13.30;;;3.83;;
26718;SDS011;14326;50.794;6.060;2023-04-15T12:22:47;15.57;;;4.45;;
26718;SDS011;14326;50.794;6.060;2023-04-15T12:25:13;13.20;;;4.55;;
26718;SDS011;14326;50.794;6.060;2023-04-15T12:27:40;12.27;;;3.80;;
26718;SDS011;14326;50.794;6.060;2023-04-15T12:30:10;11.50;;;3.85;;
26718;SDS011;14326;50.794;6.060;2023-04-15T12:35:05;13.07;;;4.30;;
26718;SDS011;14326;50.794;6.060;2023-04-15T12:37:34;11.25;;;3.95;;
26718;SDS011;14326;50.794;6.060;2023-04-15T12:43:13;8.02;;;2.80;;
26718;SDS011;14326;50.794;6.060;2023-04-15T12:48:38;12.40;;;4.43;;
26718;SDS011;14326;50.794;6.060;2023-04-15T12:51:08;12.70;;;4.13;;
26718;SDS011;14326;50.794;6.060;2023-04-15T12:53:36;8.98;;;3.05;;
26718;SDS011;14326;50.794;6.060;2023-04-15T12:56:03;11.43;;;3.70;;
26718;SDS011;14326;50.794;6.060;2023-04-15T12:58:30;12.60;;;4.13;;
26718;SDS011;14326;50.794;6.060;2023-04-15T13:00:57;12.18;;;4.03;;
26718;SDS011;14326;50.794;6.060;2023-04-15T13:03:29;10.82;;;3.78;;
26718;SDS011;14326;50.794;6.060;2023-04-15T13:06:06;11.48;;;3.58;;
26718;SDS011;14326;50.794;6.060;2023-04-15T13:08:44;13.63;;;4.05;;
26718;SDS011;14326;50.794;6.060;2023-04-15T13:11:11;14.80;;;3.97;;
26718;SDS011;14326;50.794;6.060;2023-04-15T13:13:38;13.55;;;3.92;;
26718;SDS011;14326;50.794;6.060;2023-04-15T13:16:05;11.60;;;4.00;;
26718;SDS011;14326;50.794;6.060;2023-04-15T13:18:41;12.23;;;3.65;;
26718;SDS011;14326;50.794;6.060;2023-04-15T13:21:09;11.13;;;3.22;;
26718;SDS011;14326;50.794;6.060;2023-04-15T13:23:37;9.88;;;3.20;;
26718;SDS011;14326;50.794;6.060;2023-04-15T13:26:11;9.27;;;3.20;;
26718;SDS011;14326;50.794;6.060;2023-04-15T13:28:46;12.18;;;3.47;;
26718;SDS011;14326;50.794;6.060;2023-04-15T13:31:23;12.18;;;3.65;;
26718;SDS011;14326;50.794;6.060;2023-04-15T13:33:50;12.13;;;3.97;;
26718;SDS011;14326;50.794;6.060;2023-04-15T13:36:16;11.52;;;3.60;;
26718;SDS011;14326;50.794;6.060;2023-04-15T13:38:49;11.05;;;4.15;;
26718;SDS011;14326;50.794;6.060;2023-04-15T13:41:31;12.15;;;3.90;;
26718;SDS011;14326;50.794;6.060;2023-04-15T13:43:58;12.73;;;3.92;;
26718;SDS011;14326;50.794;6.060;2023-04-15T13:46:24;14.95;;;4.20;;
26718;SDS011;14326;50.794;6.060;2023-04-15T13:48:51;10.90;;;4.03;;
26718;SDS011;14326;50.794;6.060;2023-04-15T13:51:18;8.18;;;3.25;;
26718;SDS011;14326;50.794;6.060;2023-04-15T13:53:45;9.55;;;3.30;;
26718;SDS011;14326;50.794;6.060;2023-04-15T13:56:13;11.35;;;3.55;;
26718;SDS011;14326;50.794;6.060;2023-04-15T13:58:43;9.68;;;3.22;;
26718;SDS011;14326;50.794;6.060;2023-04-15T14:01:11;10.98;;;3.63;;
26718;SDS011;14326;50.794;6.060;2023-04-15T14:03:38;10.10;;;3.50;;
26718;SDS011;14326;50.794;6.060;2023-04-15T14:06:05;9.48;;;3.53;;
26718;SDS011;14326;50.794;6.060;2023-04-15T14:08:32;11.00;;;3.53;;
26718;SDS011;14326;50.794;6.060;2023-04-15T14:10:59;10.48;;;3.30;;
26718;SDS011;14326;50.794;6.060;2023-04-15T14:13:25;9.25;;;3.20;;
26718;SDS011;14326;50.794;6.060;2023-04-15T14:15:53;8.98;;;3.20;;
26718;SDS011;14326;50.794;6.060;2023-04-15T14:18:21;10.82;;;3.58;;
26718;SDS011;14326;50.794;6.060;2023-04-15T14:20:48;10.02;;;3.15;;
26718;SDS011;14326;50.794;6.060;2023-04-15T14:23:15;10.52;;;3.28;;
26718;SDS011;14326;50.794;6.060;2023-04-15T14:25:44;7.93;;;2.92;;
26718;SDS011;14326;50.794;6.060;2023-04-15T14:28:13;11.80;;;3.40;;
26718;SDS011;14326;50.794;6.060;2023-04-15T14:30:40;10.15;;;3.20;;
26718;SDS011;14326;50.794;6.060;2023-04-15T14:33:08;10.90;;;3.10;;
26718;SDS011;14326;50.794;6.060;2023-04-15T14:35:35;10.07;;;3.22;;
26718;SDS011;14326;50.794;6.060;2023-04-15T14:38:02;9.88;;;2.92;;
26718;SDS011;14326;50.794;6.060;2023-04-15T14:40:31;8.88;;;3.28;;
26718;SDS011;14326;50.794;6.060;2023-04-15T14:43:00;8.38;;;2.90;;
26718;SDS011;14326;50.794;6.060;2023-04-15T14:45:37;8.50;;;2.80;;
26718;SDS011;14326;50.794;6.060;2023-04-15T14:48:04;12.23;;;3.00;;
26718;SDS011;14326;50.794;6.060;2023-04-15T14:53:26;9.32;;;2.47;;
26718;SDS011;14326;50.794;6.060;2023-04-15T14:55:52;8.23;;;3.00;;
26718;SDS011;14326;50.794;6.060;2023-04-15T14:58:19;7.25;;;2.92;;
26718;SDS011;14326;50.794;6.060;2023-04-15T15:00:46;8.15;;;2.90;;
26718;SDS011;14326;50.794;6.060;2023-04-15T15:03:13;6.75;;;2.80;;
26718;SDS011;14326;50.794;6.060;2023-04-15T15:05:40;8.43;;;3.25;;
26718;SDS011;14326;50.794;6.060;2023-04-15T15:08:09;10.23;;;3.08;;
26718;SDS011;14326;50.794;6.060;2023-04-15T15:10:36;9.68;;;3.00;;
26718;SDS011;14326;50.794;6.060;2023-04-15T15:13:03;7.03;;;2.90;;
26718;SDS011;14326;50.794;6.060;2023-04-15T15:15:34;11.30;;;2.95;;
26718;SDS011;14326;50.794;6.060;2023-04-15T15:20:43;7.95;;;2.83;;
26718;SDS011;14326;50.794;6.060;2023-04-15T15:23:30;10.77;;;3.35;;
26718;SDS011;14326;50.794;6.060;2023-04-15T15:26:12;9.45;;;3.38;;
26718;SDS011;14326;50.794;6.060;2023-04-15T15:28:39;11.25;;;3.28;;
26718;SDS011;14326;50.794;6.060;2023-04-15T15:31:06;9.85;;;3.40;;
26718;SDS011;14326;50.794;6.060;2023-04-15T15:33:42;10.48;;;3.15;;
26718;SDS011;14326;50.794;6.060;2023-04-15T15:36:26;10.90;;;3.08;;
26718;SDS011;14326;50.794;6.060;2023-04-15T15:39:00;8.48;;;3.03;;
26718;SDS011;14326;50.794;6.060;2023-04-15T15:42:02;13.38;;;3.90;;
26718;SDS011;14326;50.794;6.060;2023-04-15T15:44:40;11.93;;;4.22;;
26718;SDS011;14326;50.794;6.060;2023-04-15T15:47:17;6.78;;;2.80;;
26718;SDS011;14326;50.794;6.060;2023-04-15T15:50:00;8.70;;;2.60;;
26718;SDS011;14326;50.794;6.060;2023-04-15T15:52:39;10.00;;;3.15;;
26718;SDS011;14326;50.794;6.060;2023-04-15T15:55:18;11.07;;;3.00;;
26718;SDS011;14326;50.794;6.060;2023-04-15T15:58:03;11.43;;;3.28;;
26718;SDS011;14326;50.794;6.060;2023-04-15T16:00:42;10.68;;;2.90;;
26718;SDS011;14326;50.794;6.060;2023-04-15T16:03:30;13.98;;;3.85;;
26718;SDS011;14326;50.794;6.060;2023-04-15T16:06:29;10.65;;;2.78;;
26718;SDS011;14326;50.794;6.060;2023-04-15T16:08:55;6.88;;;2.40;;
26718;SDS011;14326;50.794;6.060;2023-04-15T16:11:26;6.97;;;2.65;;
26718;SDS011;14326;50.794;6.060;2023-04-15T16:13:53;8.48;;;2.53;;
26718;SDS011;14326;50.794;6.060;2023-04-15T16:16:20;8.75;;;2.60;;
26718;SDS011;14326;50.794;6.060;2023-04-15T16:18:47;10.68;;;2.85;;
26718;SDS011;14326;50.794;6.060;2023-04-15T16:21:15;6.53;;;2.33;;
26718;SDS011;14326;50.794;6.060;2023-04-15T16:23:52;9.35;;;2.63;;